createdAt,value
2022-11-07T00:02:30.991Z,67.77
2022-11-07T00:05:42.334Z,67.86
2022-11-07T00:08:34.293Z,67.74
2022-11-07T00:11:30.101Z,67.78
2022-11-07T00:14:07.500Z,67.02
2022-11-07T00:17:19.754Z,67.05
2022-11-07T00:20:10.106Z,66.34
2022-11-07T00:23:03.370Z,67.50
2022-11-07T00:25:52.052Z,67.64
2022-11-07T00:28:57.012Z,67.67
2022-11-07T00:31:46.756Z,66.79
2022-11-07T00:34:43.516Z,66.58
2022-11-07T00:37:33.550Z,65.63
2022-11-07T00:40:29.987Z,67.25
2022-11-07T00:43:19.581Z,66.72
2022-11-07T00:46:30.202Z,66.84
2022-11-07T00:49:19.458Z,67.27
2022-11-07T00:52:11.308Z,68.00
2022-11-07T00:55:21.380Z,67.74
2022-11-07T00:58:13.905Z,66.85
2022-11-07T01:01:10.013Z,67.21
2022-11-07T01:04:16.464Z,68.08
2022-11-07T01:07:23.578Z,67.88
2022-11-07T01:10:12.269Z,67.96
2022-11-07T01:12:45.922Z,68.31
2022-11-07T01:15:36.253Z,68.00
2022-11-07T01:18:32.720Z,66.79
2022-11-07T01:21:21.892Z,67.20
2022-11-07T01:24:31.015Z,68.03
2022-11-07T01:27:03.382Z,68.00
2022-11-07T01:30:07.795Z,67.25
2022-11-07T01:32:57.379Z,67.60
2022-11-07T01:35:34.876Z,67.26
2022-11-07T01:38:24.665Z,67.53
2022-11-07T01:41:38.535Z,67.07
2022-11-07T01:44:28.052Z,67.50
2022-11-07T01:47:40.142Z,67.36
2022-11-07T01:50:19.188Z,66.99
2022-11-07T01:53:14.037Z,66.81
2022-11-07T01:56:03.830Z,66.48
2022-11-07T01:58:55.483Z,66.84
2022-11-07T02:01:43.351Z,67.49
2022-11-07T02:04:32.175Z,67.78
2022-11-07T02:07:22.469Z,68.45
2022-11-07T02:10:30.640Z,67.99
2022-11-07T02:13:24.220Z,67.85
2022-11-07T02:54:27.343Z,67.40
2022-11-07T02:57:16.379Z,68.40
2022-11-07T03:00:05.443Z,68.60
2022-11-07T03:02:53.997Z,69.10
2022-11-07T03:05:41.941Z,70.19
2022-11-07T03:08:34.851Z,70.28
2022-11-07T03:11:22.469Z,69.86
2022-11-07T03:14:24.387Z,71.29
2022-11-07T03:17:12.558Z,71.13
2022-11-07T03:20:05.901Z,71.05
2022-11-07T03:22:38.702Z,70.08
2022-11-07T03:25:26.804Z,69.90
2022-11-07T03:28:02.863Z,69.66
2022-11-07T03:31:10.605Z,69.29
2022-11-07T03:33:58.271Z,69.47
2022-11-07T03:37:06.351Z,68.89
2022-11-07T03:39:53.963Z,69.29
2022-11-07T03:42:23.714Z,69.14
2022-11-07T03:45:13.285Z,68.38
2022-11-07T03:47:46.906Z,68.40
2022-11-07T03:50:19.405Z,68.54
2022-11-07T03:53:19.352Z,68.16
2022-11-07T03:56:08.110Z,68.49
2022-11-07T03:59:04.077Z,68.61
2022-11-07T04:01:49.188Z,68.37
2022-11-07T04:04:46.016Z,68.52
2022-11-07T04:07:33.899Z,68.11
2022-11-07T04:10:05.879Z,67.96
2022-11-07T04:13:12.628Z,68.42
2022-11-07T04:16:20.759Z,68.10
2022-11-07T04:18:48.769Z,68.34
2022-11-07T04:21:36.930Z,68.44
2022-11-07T04:24:05.384Z,68.43
2022-11-07T04:27:00.953Z,67.42
2022-11-07T04:29:44.866Z,68.15
2022-11-07T04:32:43.118Z,68.39
2022-11-07T04:35:11.486Z,67.78
2022-11-07T04:38:15.573Z,68.16
2022-11-07T04:40:43.986Z,68.01
2022-11-07T04:43:32.189Z,67.69
2022-11-07T04:46:04.378Z,68.38
2022-11-07T04:48:36.661Z,68.86
2022-11-07T04:51:05.614Z,68.72
2022-11-07T04:53:54.451Z,68.52
2022-11-07T04:56:42.398Z,68.21
2022-11-07T04:59:46.102Z,68.09
2022-11-07T05:02:33.594Z,68.02
2022-11-07T05:05:26.634Z,67.96
2022-11-07T05:08:05.112Z,67.72
2022-11-07T05:11:12.895Z,68.69
2022-11-07T05:13:41.728Z,68.27
2022-11-07T05:16:51.169Z,67.66
2022-11-07T05:19:27.754Z,68.34
2022-11-07T05:22:15.814Z,68.34
2022-11-07T05:25:02.684Z,68.68
2022-11-07T05:27:48.627Z,68.62
2022-11-07T05:30:16.537Z,68.34
2022-11-07T05:33:04.936Z,68.73
2022-11-07T05:35:41.469Z,68.64
2022-11-07T05:38:19.276Z,69.21
2022-11-07T05:40:56.519Z,68.96
2022-11-07T05:43:49.271Z,68.36
2022-11-07T05:46:17.988Z,68.88
2022-11-07T05:49:26.410Z,68.43
2022-11-07T05:51:54.564Z,68.64
2022-11-07T05:59:13.598Z,69.04
2022-11-07T06:16:17.647Z,67.63
2022-11-07T06:19:32.786Z,67.57
2022-11-07T06:22:12.993Z,67.78
2022-11-07T06:24:48.435Z,67.68
2022-11-07T06:27:28.688Z,67.55
2022-11-07T06:30:06.976Z,67.69
2022-11-07T06:32:47.841Z,67.84
2022-11-07T06:35:27.228Z,67.39
2022-11-07T06:38:07.570Z,67.96
2022-11-07T06:40:45.308Z,69.28
2022-11-07T06:43:23.814Z,67.81
2022-11-07T06:45:55.094Z,67.89
2022-11-07T06:48:35.292Z,67.51
2022-11-07T06:51:22.367Z,66.97
2022-11-07T06:54:18.040Z,66.46
2022-11-07T06:59:38.051Z,65.83
2022-11-07T07:02:06.198Z,66.27
2022-11-07T07:04:35.092Z,66.35
2022-11-07T07:07:04.125Z,66.40
2022-11-07T07:09:33.541Z,66.21
2022-11-07T07:12:01.408Z,66.15
2022-11-07T07:14:29.646Z,65.97
2022-11-07T07:17:01.221Z,66.09
2022-11-07T07:19:31.119Z,65.35
2022-11-07T07:21:58.828Z,65.20
2022-11-07T07:24:26.970Z,65.71
2022-11-07T07:26:55.136Z,65.23
2022-11-07T07:29:23.559Z,65.00
2022-11-07T07:31:51.239Z,64.52
2022-11-07T07:34:19.271Z,64.95
2022-11-07T07:36:47.101Z,63.76
2022-11-07T07:39:14.902Z,64.40
2022-11-07T07:41:44.775Z,64.52
2022-11-07T07:44:19.546Z,63.98
2022-11-07T07:46:48.108Z,64.00
2022-11-07T07:49:16.454Z,63.69
2022-11-07T07:51:44.226Z,63.17
2022-11-07T07:54:12.963Z,63.29
2022-11-07T07:56:41.192Z,63.42
2022-11-07T07:59:09.521Z,63.52
2022-11-07T08:01:39.038Z,63.31
2022-11-07T08:04:11.939Z,63.21
2022-11-07T08:06:40.287Z,63.47
2022-11-07T08:09:08.535Z,62.63
2022-11-07T08:11:36.806Z,62.79
2022-11-07T08:14:05.462Z,62.32
2022-11-07T08:16:34.331Z,62.37
2022-11-07T08:19:02.545Z,61.75
2022-11-07T08:21:32.100Z,62.04
2022-11-07T08:24:01.063Z,61.39
2022-11-07T08:26:28.675Z,61.45
2022-11-07T08:28:56.459Z,61.35
